Decoded Metar for SAZS (SAN CARLOS DE BARILOCH in ARGENTINA) (IATA:BRC) | Meteo·Mobile Aviation Weather
aviador You're here:

SAZS Decoded Metar

SAN CARLOS DE BARILOCH in ARGENTINA
Report Time2019-04-20 10:00:00
UTC Time2019-04-20 10:13:53
Flight Rules vfr VFR
Wind160° at 04 kt
W.Decomp.*RWY 11: 3.0 kt HW 2.7 kt RCW
Visibility9999 m
Phenomena:N/A
Clouds:N/A
Expected CloudBase > 1,200 ft AGL from Temp-Dew spread
CeilingNone
Temp01°C (ISA -9)
Dew Point-2°C (81% RH)
AAT-2.7°C
QNH1019 hPa
Density Alt1,601 ft
Elevation2,756 ft
Report Wrong Elevation
Raw Report
METAR SAZS 201000Z 16004KT CAVOK 01/M02 Q1019=

Extra information for SAZS:More info

Metar Taf Metar & Taf Last 4 Metars F.Rules Stats Wind Profile Meteogram Temp Stats Airport Information Weather charts Add Link Nearby VenuesMetar ALERT Operation Metar Decoded Social comments